Time;durP1;ratioP1;P1;durP2;ratioP2;P2;SDS_P1;SDS_P2;PMS_P1;PMS_P2;Temp;Humidity;BMP_temperature;BMP_pressure;BME280_temperature;BME280_humidity;BME280_pressure;Samples;Min_cycle;Max_cycle;Signal;HPM_P1;HPM_P2
2020/12/11 00:01:48;;;;;;;11.70;5.83;;;;;;;0.68;100.00;96748.25;1793602;78;20921;-77
2020/12/11 00:04:15;;;;;;;25.43;14.10;;;;;;;0.68;99.96;96746.97;1793517;78;21157;-76
2020/12/11 00:06:43;;;;;;;10.17;5.60;;;;;;;0.70;99.94;96745.16;1793446;79;20976;-76
2020/12/11 00:09:10;;;;;;;14.13;5.67;;;;;;;0.70;99.87;96740.03;1793477;78;21426;-76
2020/12/11 00:11:37;;;;;;;16.43;6.13;;;;;;;0.74;99.97;96735.56;1793500;80;21322;-77
2020/12/11 00:14:05;;;;;;;24.27;6.40;;;;;;;0.78;99.89;96748.13;1793569;80;20925;-76
2020/12/11 00:16:32;;;;;;;11.00;5.60;;;;;;;0.82;99.85;96743.20;1793511;78;21272;-76
2020/12/11 00:19:00;;;;;;;8.67;5.47;;;;;;;0.84;99.65;96746.98;1793470;80;21437;-76
2020/12/11 00:21:27;;;;;;;9.80;6.00;;;;;;;0.86;99.53;96743.06;1793460;79;20929;-77
2020/12/11 00:23:54;;;;;;;9.77;5.30;;;;;;;0.87;99.32;96755.77;1793423;78;21004;-76
2020/12/11 00:26:22;;;;;;;16.90;5.70;;;;;;;0.87;99.37;96751.11;1793582;79;20937;-76
2020/12/11 00:28:49;;;;;;;18.17;6.07;;;;;;;0.90;99.40;96750.47;1793564;78;21768;-76
2020/12/11 00:31:21;;;;;;;22.13;5.70;;;;;;;0.90;99.24;96746.63;1793532;80;20944;-76
2020/12/11 00:33:49;;;;;;;8.88;5.05;;;;;;;0.88;99.00;96747.64;1793569;79;21028;-76
2020/12/11 00:36:16;;;;;;;7.85;4.78;;;;;;;0.85;98.94;96743.52;1793420;78;20988;-75
2020/12/11 00:38:43;;;;;;;7.60;4.93;;;;;;;0.79;98.82;96747.22;1793582;79;20991;-76
2020/12/11 00:41:10;;;;;;;7.40;4.77;;;;;;;0.76;99.07;96749.95;1793534;80;21179;-76
2020/12/11 00:43:37;;;;;;;9.50;4.67;;;;;;;0.76;99.26;96746.11;1793481;80;20928;-76
2020/12/11 00:46:05;;;;;;;16.07;6.33;;;;;;;0.79;99.39;96752.34;1793443;79;20873;-77
2020/12/11 00:48:32;;;;;;;16.20;5.10;;;;;;;0.77;99.27;96742.64;1764569;80;20992;-76
2020/12/11 00:50:59;;;;;;;7.53;5.20;;;;;;;0.73;99.24;96746.26;1793518;78;20925;-76
2020/12/11 00:53:26;;;;;;;8.00;4.80;;;;;;;0.72;99.34;96750.19;1793549;78;21985;-76
2020/12/11 00:55:54;;;;;;;6.55;4.25;;;;;;;0.70;99.28;96749.45;1793368;80;21339;-76
2020/12/11 00:58:21;;;;;;;6.67;4.30;;;;;;;0.70;99.33;96748.17;1793455;80;20992;-76
2020/12/11 01:00:48;;;;;;;7.55;3.80;;;;;;;0.66;99.40;96738.53;1793463;78;20932;-76
2020/12/11 01:03:16;;;;;;;8.70;4.43;;;;;;;0.68;99.50;96744.88;1793486;79;20889;-76
2020/12/11 01:05:43;;;;;;;10.03;4.70;;;;;;;0.66;99.44;96746.20;1793432;80;21139;-76
2020/12/11 01:08:10;;;;;;;6.93;4.00;;;;;;;0.65;99.55;96736.88;1793414;80;21407;-76
2020/12/11 01:10:38;;;;;;;12.37;4.23;;;;;;;0.65;99.58;96739.44;1793496;80;20913;-75
2020/12/11 01:13:05;;;;;;;6.77;4.00;;;;;;;0.67;99.47;96738.93;1793432;78;20928;-76
2020/12/11 01:15:32;;;;;;;5.87;4.08;;;;;;;0.64;99.43;96732.67;1793498;80;21390;-77
2020/12/11 01:18:00;;;;;;;5.87;3.10;;;;;;;0.64;99.48;96733.95;1793538;78;21171;-76
2020/12/11 01:20:27;;;;;;;5.83;3.80;;;;;;;0.66;99.59;96735.14;1793498;79;20900;-76
2020/12/11 01:22:54;;;;;;;5.87;3.70;;;;;;;0.67;99.63;96733.81;1793538;80;20885;-76
2020/12/11 01:25:21;;;;;;;3.37;2.80;;;;;;;0.67;99.63;96733.81;1793491;80;21003;-77
2020/12/11 01:27:48;;;;;;;5.03;3.20;;;;;;;0.67;99.54;96727.41;1793492;78;20904;-77
2020/12/11 01:30:15;;;;;;;5.43;3.03;;;;;;;0.68;99.35;96729.06;1793444;80;21201;-77
2020/12/11 01:32:42;;;;;;;4.20;2.98;;;;;;;0.67;99.30;96722.30;1793400;78;20932;-76
2020/12/11 01:35:10;;;;;;;6.23;2.60;;;;;;;0.68;99.42;96720.10;1793434;79;21429;-76
2020/12/11 01:37:38;;;;;;;4.30;2.50;;;;;;;0.69;99.45;96719.19;1792884;80;20897;-77
2020/12/11 01:40:06;;;;;;;3.70;2.40;;;;;;;0.71;99.38;96723.77;1793491;80;20873;-77
2020/12/11 01:42:33;;;;;;;8.87;2.67;;;;;;;0.73;99.43;96721.94;1793420;79;21249;-76
2020/12/11 01:45:00;;;;;;;2.50;2.30;;;;;;;0.75;99.31;96723.17;1793255;78;21036;-76
2020/12/11 01:47:27;;;;;;;5.00;3.43;;;;;;;0.75;99.19;96720.61;1793435;80;20881;-77
2020/12/11 01:49:57;;;;;;;5.53;2.90;;;;;;;0.75;99.17;96720.16;1793422;80;20920;-78
2020/12/11 01:52:24;;;;;;;5.50;2.40;;;;;;;0.77;99.16;96719.61;1793408;78;20920;-77
2020/12/11 01:54:51;;;;;;;2.70;2.30;;;;;;;0.81;99.27;96717.23;1793505;80;20996;-77
2020/12/11 01:58:00;;;;;;;5.97;2.23;;;;;;;0.84;99.19;96715.81;1793423;78;20944;-77
2020/12/11 02:00:27;;;;;;;3.95;2.67;;;;;;;0.88;99.14;96705.39;1793451;80;20873;-77
2020/12/11 02:03:09;;;;;;;7.00;3.00;;;;;;;0.91;98.87;96710.34;1793455;78;20908;-77
2020/12/11 02:05:36;;;;;;;5.03;2.20;;;;;;;0.91;98.78;96700.95;1793386;78;20928;-77
2020/12/11 02:08:16;;;;;;;2.50;2.30;;;;;;;0.94;98.68;96698.67;1766518;81;21394;-77
2020/12/11 02:10:46;;;;;;;6.23;2.93;;;;;;;0.99;98.75;96697.94;1768506;81;20984;-76
2020/12/11 02:13:13;;;;;;;4.80;3.77;;;;;;;1.03;98.70;96698.98;1768595;81;21355;-76
2020/12/11 02:15:41;;;;;;;3.77;2.93;;;;;;;1.06;98.41;96702.64;1768558;81;20981;-76
2020/12/11 02:18:08;;;;;;;5.10;3.30;;;;;;;1.07;98.21;96697.89;1768575;81;20941;-77
2020/12/11 02:20:36;;;;;;;8.50;3.10;;;;;;;1.06;98.04;96696.23;1768595;81;21374;-77
2020/12/11 02:23:03;;;;;;;4.47;3.03;;;;;;;1.09;98.00;96693.98;1768528;81;20981;-77
2020/12/11 02:25:30;;;;;;;4.00;3.30;;;;;;;1.08;97.84;96693.62;1768536;81;21450;-77
2020/12/11 02:27:57;;;;;;;5.55;3.08;;;;;;;1.09;97.86;96695.27;1768580;81;20944;-77
2020/12/11 02:30:24;;;;;;;6.60;3.27;;;;;;;1.09;97.86;96694.81;1768557;81;21272;-76
2020/12/11 02:32:51;;;;;;;6.13;3.70;;;;;;;1.11;97.77;96693.44;1768550;81;21633;-76
2020/12/11 02:35:18;;;;;;;6.60;3.67;;;;;;;1.12;97.76;96690.79;1768507;81;21339;-76
2020/12/11 02:37:45;;;;;;;4.63;3.20;;;;;;;1.10;97.62;96691.34;1768582;81;20933;-76
2020/12/11 02:40:12;;;;;;;3.40;3.08;;;;;;;1.10;97.72;96689.23;1768559;81;21422;-76
2020/12/11 02:42:39;;;;;;;5.90;2.97;;;;;;;1.10;97.61;96687.95;1768610;81;21426;-77
2020/12/11 02:45:07;;;;;;;3.17;2.87;;;;;;;1.08;97.70;96693.62;1768605;81;21645;-77
2020/12/11 02:47:34;;;;;;;6.40;3.20;;;;;;;1.09;97.90;96687.13;1768604;81;21340;-76
2020/12/11 02:50:01;;;;;;;9.98;3.80;;;;;;;1.13;98.02;96692.89;1768576;81;21391;-76
2020/12/11 02:52:28;;;;;;;11.47;3.30;;;;;;;1.16;97.95;96688.05;1768571;81;20917;-76
2020/12/11 02:54:56;;;;;;;17.67;4.27;;;;;;;1.15;97.86;96687.22;1768558;81;21058;-76
2020/12/11 02:57:23;;;;;;;6.40;3.47;;;;;;;1.15;97.97;96682.09;1768564;81;21707;-76
2020/12/11 02:59:50;;;;;;;7.63;3.30;;;;;;;1.13;97.98;96681.37;1768478;81;21048;-76
2020/12/11 03:02:18;;;;;;;4.93;2.80;;;;;;;1.13;98.10;96687.77;1768554;81;21068;-76
2020/12/11 03:04:45;;;;;;;4.80;2.90;;;;;;;1.14;98.34;96680.45;1768536;81;20941;-76
2020/12/11 03:07:12;;;;;;;4.53;2.93;;;;;;;1.12;98.50;96681.82;1764116;81;20934;-77
2020/12/11 03:09:41;;;;;;;10.30;3.57;;;;;;;1.13;98.80;96682.64;1758804;81;21106;-76
2020/12/11 03:12:08;;;;;;;5.47;3.30;;;;;;;1.13;99.04;96677.06;1742473;82;21098;-76
2020/12/11 03:14:35;;;;;;;6.40;3.52;;;;;;;1.15;99.17;96682.09;1742584;82;20986;-76
2020/12/11 03:17:03;;;;;;;5.33;2.87;;;;;;;1.15;99.16;96678.26;1742587;82;21160;-75
2020/12/11 03:19:31;;;;;;;3.07;2.50;;;;;;;1.15;99.27;96685.94;1742543;82;21013;-75
2020/12/11 03:21:58;;;;;;;3.90;2.58;;;;;;;1.12;99.57;96682.28;1742573;82;21212;-75
2020/12/11 03:24:25;;;;;;;2.92;2.50;;;;;;;1.13;99.79;96676.24;1742449;82;20950;-76
2020/12/11 03:26:52;;;;;;;2.98;2.27;;;;;;;1.13;100.00;96682.64;1742469;82;21132;-76
2020/12/11 03:29:20;;;;;;;8.80;2.10;;;;;;;1.12;100.00;96683.56;1742537;82;20962;-76
2020/12/11 03:31:47;;;;;;;4.00;2.37;;;;;;;1.13;100.00;96681.37;1742641;82;21083;-76
2020/12/11 03:34:14;;;;;;;4.37;2.20;;;;;;;1.11;100.00;96680.63;1742719;82;21444;-76
2020/12/11 03:36:42;;;;;;;2.47;1.93;;;;;;;1.09;100.00;96678.63;1742628;82;20998;-76
2020/12/11 03:39:09;;;;;;;4.10;2.40;;;;;;;1.09;100.00;96677.34;1742752;82;20935;-76
2020/12/11 03:41:36;;;;;;;6.40;2.57;;;;;;;1.10;100.00;96673.41;1742637;82;20953;-76
2020/12/11 03:44:03;;;;;;;12.83;2.53;;;;;;;1.13;100.00;96677.06;1742722;82;20899;-76
2020/12/11 03:46:30;;;;;;;10.53;2.73;;;;;;;1.15;100.00;96683.38;1742667;82;23930;-76
2020/12/11 03:48:57;;;;;;;5.07;3.07;;;;;;;1.15;100.00;96677.44;1742715;82;20954;-76
2020/12/11 03:51:24;;;;;;;10.00;3.50;;;;;;;1.14;100.00;96677.89;1742740;82;21081;-76
2020/12/11 03:53:52;;;;;;;3.97;3.17;;;;;;;1.13;100.00;96669.84;1742633;82;21018;-76
2020/12/11 03:56:19;;;;;;;4.67;2.73;;;;;;;1.14;100.00;96672.77;1742678;82;21128;-76
2020/12/11 03:58:47;;;;;;;6.58;3.10;;;;;;;1.16;100.00;96666.27;1742771;82;21922;-76
2020/12/11 04:01:14;;;;;;;5.07;3.17;;;;;;;1.18;100.00;96674.72;1742659;82;21093;-76
2020/12/11 04:03:43;;;;;;;20.43;6.60;;;;;;;1.20;100.00;96669.05;1742669;82;21149;-79
2020/12/11 04:06:14;;;;;;;6.07;3.70;;;;;;;1.24;100.00;96671.80;1742596;82;21033;-77
2020/12/11 04:08:42;;;;;;;3.30;2.60;;;;;;;1.24;100.00;96666.67;1768917;80;20943;-77
2020/12/11 04:11:11;;;;;;;2.80;2.27;;;;;;;1.25;100.00;96666.61;1795051;80;21946;-77
2020/12/11 04:13:39;;;;;;;3.73;2.40;;;;;;;1.25;100.00;96667.89;1794859;80;20935;-78
2020/12/11 04:16:06;;;;;;;8.03;2.70;;;;;;;1.25;100.00;96666.61;1794906;80;20895;-78
2020/12/11 04:18:34;;;;;;;4.23;2.40;;;;;;;1.25;100.00;96666.61;1794877;80;20958;-77
2020/12/11 04:21:01;;;;;;;8.43;3.60;;;;;;;1.25;100.00;96674.75;1794899;80;20998;-77
2020/12/11 04:23:28;;;;;;;3.03;2.40;;;;;;;1.25;100.00;96670.91;1794953;80;21183;-77
2020/12/11 04:25:55;;;;;;;9.43;4.87;;;;;;;1.27;100.00;96675.02;1794897;80;20950;-77
2020/12/11 04:28:22;;;;;;;4.62;2.95;;;;;;;1.27;100.00;96673.74;1794903;80;21416;-77
2020/12/11 04:30:50;;;;;;;5.80;4.10;;;;;;;1.28;100.00;96677.95;1794882;80;21037;-77
2020/12/11 04:33:17;;;;;;;4.62;3.30;;;;;;;1.31;100.00;96676.94;1794975;80;21313;-77
2020/12/11 04:35:44;;;;;;;17.77;7.78;;;;;;;1.32;100.00;96677.30;1794853;80;21198;-77
2020/12/11 04:38:11;;;;;;;16.35;9.65;;;;;;;1.33;100.00;96675.14;1794877;80;21101;-77
2020/12/11 04:40:38;;;;;;;9.38;5.55;;;;;;;1.34;100.00;96672.95;1794881;80;21065;-77
2020/12/11 04:43:11;;;;;;;10.23;6.50;;;;;;;1.32;100.00;96674.74;1794886;80;20915;-77
2020/12/11 04:45:39;;;;;;;7.15;4.92;;;;;;;1.32;100.00;96682.43;1795040;80;20923;-77
2020/12/11 04:48:10;;;;;;;17.45;8.50;;;;;;;1.29;100.00;96680.05;1794969;80;21985;-76
2020/12/11 04:50:37;;;;;;;8.75;5.97;;;;;;;1.29;100.00;96678.31;1794833;80;21332;-76
2020/12/11 04:53:04;;;;;;;6.78;3.95;;;;;;;1.32;100.00;96678.59;1794922;80;20967;-75
2020/12/11 04:55:38;;;;;;;5.50;3.85;;;;;;;1.33;100.00;96681.09;1794859;80;21092;-76
2020/12/11 04:58:06;;;;;;;3.73;2.67;;;;;;;1.33;100.00;96681.09;1794498;80;21539;-76
2020/12/11 05:00:33;;;;;;;8.45;3.95;;;;;;;1.33;100.00;96675.97;1794915;80;21364;-77
2020/12/11 05:03:01;;;;;;;5.87;4.05;;;;;;;1.34;100.00;96683.19;1794863;80;20966;-76
2020/12/11 05:05:28;;;;;;;12.03;7.47;;;;;;;1.35;100.00;96683.10;1795020;80;20883;-76
2020/12/11 05:07:56;;;;;;;27.60;18.50;;;;;;;1.36;100.00;96686.03;1794755;79;20903;-76
2020/12/11 05:10:23;;;;;;;17.10;9.53;;;;;;;1.37;100.00;96682.55;1794912;80;21101;-76
2020/12/11 05:12:50;;;;;;;57.55;39.63;;;;;;;1.40;100.00;96682.36;1795107;80;20978;-76
2020/12/11 05:15:18;;;;;;;31.60;20.50;;;;;;;1.40;100.00;96687.48;1795029;80;20959;-76
2020/12/11 05:17:45;;;;;;;40.83;30.02;;;;;;;1.42;100.00;96689.16;1795290;80;21301;-76
2020/12/11 05:20:13;;;;;;;18.70;10.60;;;;;;;1.43;100.00;96686.52;1795031;80;21420;-76
2020/12/11 05:22:40;;;;;;;8.67;5.67;;;;;;;1.46;100.00;96688.89;1794909;80;21505;-76
2020/12/11 05:25:15;;;;;;;14.95;9.48;;;;;;;1.49;100.00;96696.42;1794890;80;21440;-77
2020/12/11 05:27:46;;;;;;;7.43;4.80;;;;;;;1.52;100.00;96694.95;1795083;80;21412;-76
2020/12/11 05:30:19;;;;;;;7.47;5.75;;;;;;;1.55;99.98;96697.33;1794837;80;21405;-76
2020/12/11 05:32:52;;;;;;;2.95;2.75;;;;;;;1.56;99.79;96704.55;1794830;80;21341;-76
2020/12/11 05:35:27;;;;;;;3.87;3.15;;;;;;;1.57;99.63;96707.48;1794926;80;21045;-75
2020/12/11 05:38:05;;;;;;;4.70;3.83;;;;;;;1.55;99.38;96706.75;1794815;80;21281;-76
2020/12/11 05:40:40;;;;;;;3.35;3.00;;;;;;;1.55;99.39;96708.03;1794906;80;21026;-76
2020/12/11 05:43:19;;;;;;;3.85;3.25;;;;;;;1.55;99.29;96711.42;1794830;80;21081;-76
2020/12/11 05:45:51;;;;;;;3.60;2.52;;;;;;;1.57;99.39;96710.91;1794799;80;20923;-76
2020/12/11 05:48:22;;;;;;;3.75;3.45;;;;;;;1.58;99.36;96709.16;1794921;80;21021;-76
2020/12/11 05:50:49;;;;;;;2.10;2.00;;;;;;;1.56;99.38;96713.06;1794829;80;21368;-76
2020/12/11 05:53:16;;;;;;;3.65;3.35;;;;;;;1.56;99.47;96718.66;1794779;80;21074;-76
2020/12/11 05:55:43;;;;;;;2.52;2.20;;;;;;;1.56;99.55;96711.78;1794856;80;20934;-76
2020/12/11 05:58:10;;;;;;;2.92;2.10;;;;;;;1.56;99.63;96711.78;1791451;79;21160;-77
2020/12/11 06:00:40;;;;;;;2.60;1.90;;;;;;;1.57;99.84;96710.91;1791731;79;21192;-73
2020/12/11 06:03:11;;;;;;;2.17;1.98;;;;;;;1.60;100.00;96715.02;1782677;79;21376;-75
2020/12/11 06:05:39;;;;;;;2.50;2.23;;;;;;;1.61;100.00;96716.20;1794211;79;21079;-77
2020/12/11 06:08:11;;;;;;;2.15;2.05;;;;;;;1.61;100.00;96709.80;1795869;78;21121;-77
2020/12/11 06:10:41;;;;;;;4.15;2.15;;;;;;;1.62;100.00;96714.01;1794980;79;21182;-76
2020/12/11 06:13:08;;;;;;;4.23;2.37;;;;;;;1.62;100.00;96706.78;1788707;79;22109;-80
2020/12/11 06:15:43;;;;;;;1.93;1.80;;;;;;;1.65;100.00;96711.72;1786743;79;21198;-78
2020/12/11 06:18:22;;;;;;;2.70;2.50;;;;;;;1.68;100.00;96718.79;1767509;80;21161;-80
2020/12/11 06:20:54;;;;;;;2.97;2.70;;;;;;;1.72;100.00;96711.73;1788372;80;21131;-82
2020/12/11 06:23:24;;;;;;;5.83;5.10;;;;;;;1.75;100.00;96719.73;1764064;81;21189;-83
2020/12/11 06:26:00;;;;;;;6.78;3.05;;;;;;;1.76;100.00;96721.38;1759196;79;21202;-81
2020/12/11 06:31:22;;;;;;;2.20;1.93;;;;;;;1.81;100.00;96725.30;1834298;77;22655;-79
2020/12/11 06:33:52;;;;;;;4.53;2.50;;;;;;;1.75;100.00;96714.14;1819772;78;20882;-77
2020/12/11 06:36:20;;;;;;;6.22;2.58;;;;;;;1.73;100.00;96714.66;1828284;77;21953;-79
2020/12/11 06:38:51;;;;;;;16.45;7.28;;;;;;;1.74;100.00;96720.19;1836438;77;21326;-80
2020/12/11 06:41:37;;;;;;;10.53;2.92;;;;;;;1.76;100.00;96713.23;1828678;77;21038;-83
2020/12/11 06:44:17;;;;;;;4.42;2.87;;;;;;;1.79;100.00;96715.59;1782597;79;21021;-78
2020/12/11 06:47:05;;;;;;;6.53;3.80;;;;;;;1.80;100.00;96713.86;1782232;79;21012;-74
2020/12/11 06:49:34;;;;;;;15.68;5.42;;;;;;;1.80;100.00;96713.40;1799087;78;20992;-80
2020/12/11 06:52:06;;;;;;;10.80;4.75;;;;;;;1.80;100.00;96703.14;1812495;78;20989;-79
2020/12/11 06:54:39;;;;;;;8.38;4.00;;;;;;;1.80;100.00;96709.55;1804966;78;20993;-76
2020/12/11 06:57:06;;;;;;;4.20;3.45;;;;;;;1.82;100.00;96709.46;1829302;78;21529;-77
2020/12/11 06:59:40;;;;;;;16.32;3.47;;;;;;;1.82;100.00;96705.19;1809512;78;21576;-78
2020/12/11 07:02:15;;;;;;;;;;;;;;;1.81;100.00;96699.66;1814212;78;21376;-75
2020/12/11 07:04:44;;;;;;;5.58;3.12;;;;;;;1.81;100.00;96703.51;1801073;78;20557;-78
2020/12/11 07:07:13;;;;;;;12.13;3.85;;;;;;;1.79;100.00;96703.23;1814043;78;21198;-77
2020/12/11 07:09:45;;;;;;;11.40;4.83;;;;;;;1.78;100.00;96705.44;1810470;78;21146;-80
2020/12/11 07:12:14;;;;;;;17.10;4.67;;;;;;;1.79;100.00;96704.06;1814084;78;21116;-79
2020/12/11 07:14:47;;;;;;;16.73;5.25;;;;;;;1.82;100.00;96700.06;1804270;78;21173;-79
2020/12/11 07:17:26;;;;;;;22.90;7.33;;;;;;;1.82;100.00;96700.48;1812845;78;21131;-80
2020/12/11 07:19:55;;;;;;;48.25;10.35;;;;;;;1.84;100.00;96702.07;1816136;78;21047;-79
2020/12/11 07:22:23;;;;;;;15.58;5.25;;;;;;;1.83;100.00;96701.70;1814199;78;21154;-81
2020/12/11 07:24:51;;;;;;;18.62;6.45;;;;;;;1.85;100.00;96701.61;1816597;78;21117;-77
2020/12/11 07:27:18;;;;;;;12.53;6.37;;;;;;;1.83;100.00;96699.14;1818919;78;21973;-82
2020/12/11 07:29:52;;;;;;;12.03;5.55;;;;;;;1.80;100.00;96698.48;1810973;78;21207;-76
2020/12/11 07:32:21;;;;;;;21.00;5.85;;;;;;;1.78;100.00;96698.57;1813653;78;21344;-79
2020/12/11 07:34:49;;;;;;;18.32;5.55;;;;;;;1.79;100.00;96702.78;1815055;78;21140;-81
2020/12/11 07:37:16;;;;;;;38.02;8.03;;;;;;;1.79;100.00;96701.50;1811569;78;21159;-80
2020/12/11 07:39:55;;;;;;;25.95;6.58;;;;;;;1.80;100.00;96700.58;1808878;78;21434;-86
2020/12/11 07:42:37;;;;;;;14.87;5.00;;;;;;;1.81;100.00;96702.69;1831887;76;21013;-78
2020/12/11 07:45:26;;;;;;;12.95;5.17;;;;;;;1.82;100.00;96692.80;1830997;77;20869;-79
2020/12/11 07:47:56;;;;;;;8.55;4.50;;;;;;;1.83;100.00;96696.58;1834536;76;21008;-80
2020/12/11 07:50:30;;;;;;;16.93;5.10;;;;;;;1.82;100.00;96694.93;1799955;78;21571;-77
2020/12/11 07:52:58;;;;;;;23.90;5.12;;;;;;;1.82;100.00;96694.93;1802758;78;21181;-77
2020/12/11 07:55:29;;;;;;;18.55;6.15;;;;;;;1.83;100.00;96694.47;1802386;78;21159;-78
2020/12/11 07:57:58;;;;;;;8.93;4.97;;;;;;;1.83;100.00;96697.86;1804590;78;21917;-77
2020/12/11 08:00:27;;;;;;;5.55;3.75;;;;;;;1.84;100.00;96692.27;1803230;78;21167;-77
2020/12/11 08:02:56;;;;;;;16.62;6.00;;;;;;;1.84;100.00;96690.53;1809880;78;21541;-77
2020/12/11 08:05:24;;;;;;;8.25;4.40;;;;;;;1.87;100.00;96698.48;1795210;78;21186;-77
2020/12/11 08:07:53;;;;;;;10.48;5.00;;;;;;;1.89;100.00;96698.76;1834065;76;21156;-76
2020/12/11 08:10:23;;;;;;;14.10;5.60;;;;;;;1.91;100.00;96694.39;1831126;76;20977;-78
2020/12/11 08:12:51;;;;;;;12.80;5.97;;;;;;;1.93;100.00;96697.68;1834406;77;21143;-76
2020/12/11 08:15:32;;;;;;;8.97;5.13;;;;;;;1.94;100.00;96695.48;1840108;77;21147;-76
2020/12/11 08:18:23;;;;;;;8.33;5.10;;;;;;;1.94;100.00;96692.92;1836585;77;21127;-77
2020/12/11 08:20:58;;;;;;;14.13;6.42;;;;;;;1.93;100.00;96688.70;1835337;77;21108;-77
2020/12/11 08:23:41;;;;;;;11.75;5.70;;;;;;;1.92;100.00;96689.62;1833284;76;21199;-75
2020/12/11 08:26:15;;;;;;;7.20;4.80;;;;;;;1.92;100.00;96702.45;1834989;76;21158;-75
2020/12/11 08:28:43;;;;;;;10.75;6.05;;;;;;;1.94;100.00;96682.66;1836939;76;21522;-76
2020/12/11 08:31:19;;;;;;;13.88;6.30;;;;;;;1.97;100.00;96688.88;1837153;77;22151;-81
2020/12/11 08:33:49;;;;;;;17.70;5.10;;;;;;;2.00;100.00;96690.92;1834301;76;21189;-78
2020/12/11 08:36:25;;;;;;;10.18;6.05;;;;;;;2.05;100.00;96692.27;1826723;77;21498;-80
2020/12/11 08:39:13;;;;;;;12.05;6.17;;;;;;;2.11;100.00;96679.55;1834974;76;21146;-80
2020/12/11 08:42:01;;;;;;;10.95;5.92;;;;;;;2.16;100.00;96680.11;1805866;78;21155;-79
2020/12/11 08:44:38;;;;;;;16.45;7.10;;;;;;;2.22;100.00;96686.14;1801474;78;21179;-79
2020/12/11 08:49:43;;;;;;;10.58;5.47;;;;;;;2.33;100.00;96684.23;1820859;78;21139;-78
2020/12/11 08:52:11;;;;;;;15.20;7.50;;;;;;;2.41;100.00;96684.59;1811632;78;21205;-79
2020/12/11 08:54:38;;;;;;;29.92;7.80;;;;;;;2.46;100.00;96682.55;1811581;78;21617;-81
2020/12/11 08:57:06;;;;;;;30.08;10.58;;;;;;;2.51;100.00;96681.82;1806853;78;21657;-79
2020/12/11 08:59:33;;;;;;;12.70;7.08;;;;;;;2.56;100.00;96682.80;1818157;78;21206;-77
2020/12/11 09:02:02;;;;;;;10.30;6.12;;;;;;;2.59;100.00;96682.17;1809722;78;21162;-82
2020/12/11 09:04:32;;;;;;;17.12;11.00;;;;;;;2.60;100.00;96676.12;1806955;78;21146;-78
2020/12/11 09:07:00;;;;;;;14.80;9.33;;;;;;;2.61;100.00;96685.46;1811288;78;21176;-82
2020/12/11 09:09:27;;;;;;;15.98;9.65;;;;;;;2.62;100.00;96683.72;1797134;78;21199;-77
2020/12/11 09:11:54;;;;;;;17.32;7.47;;;;;;;2.62;100.00;96676.84;1801252;78;21127;-79
2020/12/11 09:14:22;;;;;;;27.60;8.10;;;;;;;2.64;100.00;96672.89;1820490;78;21068;-81
2020/12/11 09:16:50;;;;;;;13.43;6.62;;;;;;;2.62;100.00;96672.17;1799272;78;21129;-81
2020/12/11 09:19:17;;;;;;;11.85;6.72;;;;;;;2.62;100.00;96667.03;1804638;78;21159;-77
2020/12/11 09:21:45;;;;;;;15.60;8.30;;;;;;;2.62;100.00;96665.29;1803771;78;22217;-81
2020/12/11 09:24:12;;;;;;;11.45;6.60;;;;;;;2.65;100.00;96656.56;1798440;78;20965;-82
2020/12/11 09:26:40;;;;;;;10.05;6.33;;;;;;;2.66;100.00;96665.48;1806239;78;21145;-78
2020/12/11 09:31:42;;;;;;;12.73;6.93;;;;;;;2.71;100.00;96654.44;1786654;78;21195;-81
2020/12/11 09:34:09;;;;;;;13.18;6.78;;;;;;;2.72;100.00;96652.70;1792046;79;21537;-81
2020/12/11 09:36:44;;;;;;;16.57;6.87;;;;;;;2.72;100.00;96648.84;1790201;79;21093;-79
2020/12/11 09:39:11;;;;;;;13.62;6.87;;;;;;;2.68;100.00;96644.38;1778170;79;21050;-78
2020/12/11 09:41:41;;;;;;;13.62;7.00;;;;;;;2.67;100.00;96659.88;1788003;79;21120;-79
2020/12/11 09:54:38;;;;;;;17.02;7.45;;;;;;;2.68;100.00;96652.54;1778852;80;21155;-84
2020/12/11 09:57:07;;;;;;;16.12;8.53;;;;;;;2.69;100.00;96645.20;1772341;80;20981;-79
2020/12/11 09:59:43;;;;;;;12.60;7.75;;;;;;;2.70;100.00;96649.41;1792164;79;21355;-80
2020/12/11 10:04:51;;;;;;;25.97;12.03;;;;;;;2.72;100.00;96639.86;1786295;80;21070;-80
2020/12/11 10:07:18;;;;;;;25.75;16.20;;;;;;;2.70;100.00;96648.13;1785207;80;21030;-76
2020/12/11 10:09:48;;;;;;;27.32;13.20;;;;;;;2.69;100.00;96642.63;1808928;79;21143;-81
2020/12/11 10:12:22;;;;;;;22.13;10.75;;;;;;;2.70;100.00;96648.13;1790239;80;21402;-81
2020/12/11 10:14:51;;;;;;;23.57;10.00;;;;;;;2.71;100.00;96644.63;1776685;80;21166;-79
2020/12/11 10:17:16;;;;;;;21.95;15.40;;;;;;;2.70;100.00;96643.81;1815841;77;21070;-79
2020/12/11 10:19:48;;;;;;;18.45;10.18;;;;;;;2.71;100.00;96646.74;1787896;79;20993;-78
2020/12/11 10:22:13;;;;;;;26.25;9.23;;;;;;;2.72;100.00;96653.52;1790429;79;21140;-75
2020/12/11 10:24:40;;;;;;;19.15;10.72;;;;;;;2.71;100.00;96648.48;1786896;79;21251;-76
2020/12/11 10:27:08;;;;;;;14.83;7.95;;;;;;;2.70;100.00;96641.70;1795509;79;21242;-78
2020/12/11 10:29:35;;;;;;;21.33;12.80;;;;;;;2.69;100.00;96631.08;1802065;78;21110;-75
2020/12/11 10:32:04;;;;;;;14.83;8.25;;;;;;;2.69;100.00;96629.80;1816341;78;21675;-77
2020/12/11 10:34:35;;;;;;;15.83;9.05;;;;;;;2.68;100.00;96638.42;1828695;77;21136;-75
2020/12/11 10:37:07;;;;;;;15.18;8.85;;;;;;;2.68;100.00;96635.85;1845676;76;22333;-77
2020/12/11 10:39:34;;;;;;;17.37;7.45;;;;;;;2.70;100.00;96631.44;1845432;77;21064;-76
2020/12/11 10:42:04;;;;;;;19.35;10.90;;;;;;;2.67;100.00;96620.91;1838695;77;21547;-77
2020/12/11 10:44:32;;;;;;;18.62;8.93;;;;;;;2.65;100.00;96630.89;1839090;77;21180;-78
2020/12/11 10:47:00;;;;;;;15.75;9.33;;;;;;;2.62;100.00;96637.05;1820738;78;21502;-76
2020/12/11 10:49:28;;;;;;;23.47;9.98;;;;;;;2.59;100.00;96633.41;1808837;78;21839;-77
2020/12/11 10:51:57;;;;;;;15.63;7.85;;;;;;;2.58;100.00;96636.07;1817542;78;21159;-76
2020/12/11 10:54:27;;;;;;;17.23;8.30;;;;;;;2.57;100.00;96616.45;1829505;78;21171;-80
2020/12/11 10:56:55;;;;;;;14.55;9.35;;;;;;;2.55;100.00;96613.96;1818902;78;21164;-77
2020/12/11 10:59:23;;;;;;;15.40;9.35;;;;;;;2.52;100.00;96623.15;1807651;78;21630;-79
2020/12/11 11:01:52;;;;;;;14.70;8.63;;;;;;;2.50;100.00;96623.71;1810579;78;21433;-77
2020/12/11 11:04:23;;;;;;;16.30;8.70;;;;;;;2.49;100.00;96622.06;1820336;78;21060;-83
2020/12/11 11:07:12;;;;;;;15.17;8.10;;;;;;;2.48;100.00;96617.83;1777852;78;21159;-78
2020/12/11 11:09:49;;;;;;;18.70;8.20;;;;;;;2.46;100.00;96619.21;1814276;78;21150;-75
2020/12/11 11:20:46;;;;;;;14.90;8.18;;;;;;;2.40;100.00;96623.46;1808442;78;21218;-80
2020/12/11 11:28:36;;;;;;;17.87;10.20;;;;;;;2.41;100.00;96611.45;1818743;78;21528;-80
2020/12/11 11:31:11;;;;;;;20.12;10.43;;;;;;;2.42;100.00;96602.83;1793289;78;21149;-77
2020/12/11 11:33:39;;;;;;;24.63;11.60;;;;;;;2.44;100.00;96619.77;1801813;78;20929;-80
2020/12/11 11:36:06;;;;;;;22.00;11.75;;;;;;;2.44;100.00;96621.05;1818863;78;21115;-80
2020/12/11 11:38:34;;;;;;;23.27;11.88;;;;;;;2.44;100.00;96609.51;1818972;78;21124;-79
2020/12/11 11:41:01;;;;;;;18.20;10.55;;;;;;;2.43;100.00;96618.13;1813040;78;21990;-80
2020/12/11 11:44:04;;;;;;;20.80;11.00;;;;;;;2.44;100.00;96623.63;1809945;78;21163;-80
2020/12/11 11:46:38;;;;;;;16.65;9.80;;;;;;;2.44;100.00;96623.63;1807530;78;21032;-79
2020/12/11 11:49:13;;;;;;;17.05;9.60;;;;;;;2.47;100.00;96616.19;1820173;78;21106;-80
2020/12/11 11:51:59;;;;;;;19.60;10.45;;;;;;;2.47;100.00;96617.47;1805290;78;21035;-77
2020/12/11 11:54:19;;;;;;;23.95;9.48;;;;;;;2.48;100.00;96609.70;1806546;78;21205;-80
2020/12/11 11:56:46;;;;;;;18.32;10.00;;;;;;;2.51;100.00;96613.34;1811187;78;21165;-79
2020/12/11 11:59:13;;;;;;;19.23;9.58;;;;;;;2.52;100.00;96614.98;1811945;78;21171;-80
2020/12/11 12:01:41;;;;;;;16.35;8.55;;;;;;;2.52;100.00;96615.45;1812563;78;21136;-75
2020/12/11 12:04:10;;;;;;;18.35;9.90;;;;;;;2.49;100.00;96605.38;1812745;78;21143;-76
2020/12/11 12:06:37;;;;;;;22.17;11.08;;;;;;;2.49;100.00;96611.34;1810741;78;21501;-83
2020/12/11 12:09:04;;;;;;;16.70;10.72;;;;;;;2.48;100.00;96604.56;1814043;78;21158;-76
2020/12/11 12:11:32;;;;;;;22.52;9.98;;;;;;;2.48;100.00;96598.14;1810124;78;21175;-76
2020/12/11 12:14:00;;;;;;;16.27;9.65;;;;;;;2.47;100.00;96601.61;1810163;78;21514;-75
2020/12/11 12:16:27;;;;;;;25.87;11.17;;;;;;;2.48;100.00;96592.16;1817177;78;21183;-77
2020/12/11 12:18:57;;;;;;;21.75;9.83;;;;;;;2.48;100.00;96594.30;1808479;78;21359;-78